createdAt,value
2022-09-29T09:49:03.373Z,21.50
2022-09-29T09:50:04.621Z,22.20
2022-09-29T09:51:04.558Z,22.00
2022-09-29T09:52:04.567Z,21.00
2022-09-29T09:53:04.444Z,21.20
2022-09-29T09:54:04.473Z,21.00
2022-09-29T09:55:04.476Z,21.40
2022-09-29T09:56:04.389Z,20.00
2022-09-29T09:57:04.477Z,21.60
2022-09-29T09:58:04.428Z,19.00
2022-09-29T09:59:04.354Z,20.20
2022-09-29T10:00:04.403Z,19.00
2022-09-29T10:01:04.436Z,18.80
2022-09-29T10:02:04.434Z,18.10
2022-09-29T10:03:04.332Z,20.70
2022-09-29T10:04:04.351Z,17.80
2022-09-29T10:05:09.409Z,19.70
2022-09-29T10:06:06.289Z,20.10
2022-09-29T10:07:04.471Z,18.80
2022-09-29T10:08:04.262Z,16.60
2022-09-29T10:09:05.481Z,16.70
2022-09-29T10:10:04.287Z,17.40
2022-09-29T10:11:04.579Z,16.70
2022-09-29T10:12:04.274Z,16.60
2022-09-29T10:13:04.265Z,17.30
2022-09-29T10:14:04.206Z,18.30
2022-09-29T10:15:04.213Z,18.10
2022-09-29T10:16:04.210Z,16.40
2022-09-29T10:17:04.219Z,15.00
2022-09-29T10:18:04.135Z,16.90
2022-09-29T10:19:04.162Z,17.20
2022-09-29T10:20:04.104Z,16.10
2022-09-29T10:21:04.160Z,16.60
2022-09-29T10:22:04.114Z,17.70
2022-09-29T10:23:04.159Z,15.80
2022-09-29T10:24:04.148Z,17.10
2022-09-29T10:25:04.182Z,16.70
2022-09-29T10:26:04.074Z,15.70
2022-09-29T10:27:04.124Z,15.40
2022-09-29T10:28:04.031Z,18.60
2022-09-29T10:29:04.138Z,17.10
2022-09-29T10:30:04.019Z,18.10
2022-09-29T10:31:04.400Z,16.10
2022-09-29T10:32:39.014Z,17.00
2022-09-29T10:33:04.397Z,16.30
2022-09-29T10:34:03.956Z,14.00
2022-09-29T10:35:03.952Z,16.10
2022-09-29T10:36:03.947Z,17.70
2022-09-29T10:37:04.938Z,13.60
2022-09-29T10:38:03.969Z,15.10
2022-09-29T10:39:03.942Z,18.20
2022-09-29T10:40:03.946Z,16.80
2022-09-29T10:41:03.933Z,14.00
2022-09-29T10:42:03.918Z,13.40
2022-09-29T10:44:03.896Z,12.60
2022-09-29T10:45:03.858Z,13.70
2022-09-29T10:46:03.893Z,17.30
2022-09-29T10:47:03.889Z,14.70
2022-09-29T10:48:03.876Z,14.40
2022-09-29T10:49:03.872Z,12.10
2022-09-29T10:50:03.824Z,13.50
2022-09-29T10:51:03.815Z,14.60
2022-09-29T10:52:03.792Z,15.70
2022-09-29T10:53:03.820Z,12.90
2022-09-29T10:54:03.745Z,13.60
2022-09-29T10:55:03.765Z,16.40
2022-09-29T10:56:03.739Z,14.10
2022-09-29T10:57:03.724Z,17.30
2022-09-29T10:58:03.725Z,16.10
2022-09-29T10:59:05.894Z,12.70
2022-09-29T11:00:04.718Z,14.30
2022-09-29T11:01:03.719Z,16.10
2022-09-29T11:02:04.411Z,16.90
2022-09-29T11:03:03.653Z,10.70
2022-09-29T11:04:03.668Z,10.40
2022-09-29T11:05:03.628Z,12.40
2022-09-29T11:06:04.639Z,12.50
2022-09-29T11:07:03.617Z,13.90
2022-09-29T11:08:03.593Z,15.50
2022-09-29T11:09:03.673Z,12.80
2022-09-29T11:10:03.618Z,12.60
2022-09-29T11:11:03.585Z,13.00
2022-09-29T11:12:08.656Z,11.90
2022-09-29T11:13:04.554Z,15.00
2022-09-29T11:14:03.593Z,13.10
2022-09-29T11:15:03.841Z,12.40
2022-09-29T11:16:03.533Z,12.40
2022-09-29T11:17:03.497Z,12.90
2022-09-29T11:18:03.548Z,14.90
2022-09-29T11:19:03.522Z,13.40
2022-09-29T11:20:04.184Z,13.90
2022-09-29T11:21:03.481Z,12.90
2022-09-29T11:22:03.462Z,15.20
2022-09-29T11:23:03.418Z,13.10
2022-09-29T11:24:03.418Z,15.00
2022-09-29T11:25:03.402Z,12.00
2022-09-29T11:26:03.394Z,11.70
2022-09-29T11:27:03.378Z,8.70
2022-09-29T11:28:03.398Z,7.80
2022-09-29T11:29:03.358Z,8.70
2022-09-29T11:30:03.366Z,9.60
2022-09-29T11:31:03.418Z,11.10
2022-09-29T11:32:03.398Z,10.40
2022-09-29T11:33:03.333Z,10.00
2022-09-29T11:34:03.318Z,7.80
2022-09-29T11:35:03.342Z,8.20
2022-09-29T11:36:03.354Z,10.60
2022-09-29T11:37:03.366Z,9.70
2022-09-29T11:38:03.254Z,12.60
2022-09-29T11:39:03.262Z,9.20
2022-09-29T11:40:03.230Z,8.10
2022-09-29T11:41:03.250Z,11.30
2022-09-29T11:42:03.241Z,9.70
2022-09-29T11:43:03.246Z,14.30
2022-09-29T11:44:03.231Z,8.40
2022-09-29T11:45:03.159Z,8.30
2022-09-29T11:46:03.219Z,10.10
2022-09-29T11:47:03.210Z,8.90
2022-09-29T11:48:03.163Z,7.10
2022-09-29T11:49:03.156Z,8.90
2022-09-29T11:50:04.027Z,8.40
2022-09-29T11:51:03.161Z,11.70
2022-09-29T11:52:03.122Z,10.10
2022-09-29T11:53:03.188Z,9.30
2022-09-29T11:54:05.368Z,9.70
2022-09-29T11:55:03.055Z,9.10
2022-09-29T11:56:03.068Z,11.50
2022-09-29T11:57:03.123Z,10.10
2022-09-29T11:58:03.142Z,9.00
2022-09-29T11:59:03.017Z,11.50
2022-09-29T12:00:03.023Z,8.50
2022-09-29T12:01:04.020Z,9.60
2022-09-29T12:02:03.015Z,9.20
2022-09-29T12:03:03.323Z,7.20
2022-09-29T12:04:05.628Z,7.80
2022-09-29T12:05:02.974Z,9.40
2022-09-29T12:06:02.968Z,9.10
2022-09-29T12:07:07.186Z,6.80
2022-09-29T12:08:02.921Z,8.70
2022-09-29T12:09:03.012Z,7.80
2022-09-29T12:10:02.924Z,7.70
2022-09-29T12:11:17.905Z,9.80
2022-09-29T12:12:22.569Z,9.70
2022-09-29T12:13:04.892Z,9.60
2022-09-29T12:14:02.864Z,9.00
2022-09-29T12:15:02.857Z,9.20
2022-09-29T12:16:02.824Z,9.90
2022-09-29T12:17:03.930Z,9.50
2022-09-29T12:18:02.837Z,8.10
2022-09-29T12:19:02.786Z,7.80
2022-09-29T12:20:02.835Z,9.70
2022-09-29T12:21:02.848Z,7.90
2022-09-29T12:22:02.813Z,9.50
2022-09-29T12:23:02.797Z,9.50
2022-09-29T12:24:02.754Z,11.90
2022-09-29T12:25:02.744Z,8.90
2022-09-29T12:26:02.777Z,9.50
2022-09-29T12:27:03.466Z,7.90
2022-09-29T12:28:02.706Z,8.60
2022-09-29T12:29:02.709Z,10.40
2022-09-29T12:30:02.698Z,8.00
2022-09-29T12:31:02.752Z,9.50
2022-09-29T12:32:02.670Z,11.40
2022-09-29T12:33:02.664Z,9.40
2022-09-29T12:34:02.669Z,8.60
2022-09-29T12:35:02.597Z,7.60
2022-09-29T12:36:02.633Z,8.60
2022-09-29T12:37:02.705Z,6.90
2022-09-29T12:38:02.601Z,8.50
2022-09-29T12:39:04.673Z,7.00
2022-09-29T12:40:03.703Z,8.30
2022-09-29T12:41:02.575Z,6.70
2022-09-29T12:42:02.549Z,8.10
2022-09-29T12:43:02.537Z,5.20
2022-09-29T12:44:02.525Z,5.70
2022-09-29T12:45:02.540Z,5.50
2022-09-29T12:46:02.524Z,6.50
2022-09-29T12:47:02.507Z,8.30
2022-09-29T12:48:02.571Z,7.80
2022-09-29T12:49:02.462Z,10.20
2022-09-29T12:50:02.460Z,10.50
2022-09-29T12:51:02.454Z,7.90
2022-09-29T12:52:02.462Z,6.50
2022-09-29T12:53:06.945Z,15.10
2022-09-29T12:54:03.531Z,9.10
2022-09-29T12:55:02.414Z,7.40
2022-09-29T12:56:02.379Z,6.10
2022-09-29T12:57:02.362Z,7.20
2022-09-29T12:58:02.363Z,5.80
2022-09-29T12:59:02.355Z,5.70
2022-09-29T13:00:02.506Z,6.50
2022-09-29T13:01:02.417Z,5.80
2022-09-29T13:02:02.323Z,5.90
2022-09-29T13:03:02.290Z,8.40
2022-09-29T13:04:02.367Z,6.70
2022-09-29T13:05:02.296Z,9.60
2022-09-29T13:06:02.307Z,5.10
2022-09-29T13:07:02.263Z,4.70
2022-09-29T13:08:02.231Z,4.50
2022-09-29T13:09:02.303Z,5.10
2022-09-29T13:10:02.399Z,4.90
2022-09-29T13:11:02.218Z,4.90
2022-09-29T13:12:02.212Z,9.00
2022-09-29T13:13:02.219Z,7.50
2022-09-29T13:14:02.255Z,5.50
2022-09-29T13:15:02.200Z,6.70
2022-09-29T13:16:02.280Z,7.00
2022-09-29T13:17:02.172Z,5.90
2022-09-29T13:18:02.151Z,7.20
2022-09-29T13:19:14.580Z,4.90
2022-09-29T13:20:04.613Z,6.80
2022-09-29T13:21:02.133Z,6.90
2022-09-29T13:22:02.116Z,4.70
2022-09-29T13:23:02.124Z,6.40
2022-09-29T13:24:02.080Z,3.90
2022-09-29T13:25:02.132Z,6.10
2022-09-29T13:26:02.109Z,6.50
2022-09-29T13:27:02.081Z,5.60
2022-09-29T13:28:02.352Z,6.30
2022-09-29T13:29:02.055Z,6.40
2022-09-29T13:30:02.039Z,4.30
2022-09-29T13:31:02.066Z,4.60
2022-09-29T13:32:02.027Z,5.50
2022-09-29T13:33:02.020Z,5.40
2022-09-29T13:34:02.636Z,7.50
2022-09-29T13:35:02.068Z,5.60
2022-09-29T13:36:02.120Z,6.80
2022-09-29T13:37:02.009Z,6.20
2022-09-29T13:38:02.100Z,5.00
2022-09-29T13:39:01.994Z,6.30
2022-09-29T13:40:28.774Z,4.50
2022-09-29T13:41:02.025Z,5.60
2022-09-29T13:42:34.298Z,7.50
2022-09-29T13:43:01.900Z,4.00
2022-09-29T13:44:02.095Z,3.80
2022-09-29T13:45:01.912Z,5.60
2022-09-29T13:46:02.030Z,3.40
2022-09-29T13:47:01.824Z,3.80
2022-09-29T13:48:01.962Z,2.70
2022-09-29T13:49:01.903Z,4.00
2022-09-29T13:50:01.845Z,2.00
2022-09-29T13:51:05.261Z,1.90
2022-09-29T13:52:01.837Z,2.70
2022-09-29T13:53:01.778Z,3.90
2022-09-29T13:54:01.829Z,2.20
2022-09-29T13:55:01.801Z,4.80
2022-09-29T13:56:01.814Z,3.40
2022-09-29T13:57:01.906Z,2.00
2022-09-29T13:58:01.897Z,6.60
2022-09-29T13:59:01.884Z,4.20
2022-09-29T14:00:01.731Z,4.50
2022-09-29T14:01:01.774Z,2.40
2022-09-29T14:02:01.746Z,3.80
2022-09-29T14:03:01.714Z,2.80
2022-09-29T14:04:01.709Z,4.20
2022-09-29T14:05:01.778Z,4.70
2022-09-29T14:06:08.750Z,3.20
2022-09-29T14:07:03.674Z,3.90
2022-09-29T14:09:01.704Z,5.30
2022-09-29T14:10:01.607Z,4.80
2022-09-29T14:11:01.618Z,3.40
2022-09-29T14:12:02.418Z,5.20
2022-09-29T14:13:01.638Z,5.20
2022-09-29T14:14:01.586Z,5.00
2022-09-29T14:15:01.573Z,3.00
2022-09-29T14:16:01.708Z,4.10
2022-09-29T14:17:01.640Z,6.30
2022-09-29T14:18:01.540Z,6.40
2022-09-29T14:19:02.020Z,7.30
2022-09-29T14:20:01.499Z,5.90
2022-09-29T14:21:01.550Z,4.30
2022-09-29T14:22:01.552Z,3.80
2022-09-29T14:23:01.450Z,2.20
2022-09-29T14:24:01.478Z,3.00
2022-09-29T14:25:01.469Z,3.00
2022-09-29T14:26:01.462Z,3.00
2022-09-29T14:27:01.426Z,2.20
2022-09-29T14:28:01.460Z,3.90
2022-09-29T14:29:01.452Z,3.20
2022-09-29T14:30:01.483Z,2.80
2022-09-29T14:31:01.612Z,4.50
2022-09-29T14:32:01.411Z,3.70
2022-09-29T14:33:01.935Z,3.90
2022-09-29T14:34:01.355Z,3.50
2022-09-29T14:35:01.327Z,2.80
2022-09-29T14:36:01.383Z,2.80
2022-09-29T14:37:01.363Z,2.60
2022-09-29T14:38:01.467Z,2.60
2022-09-29T14:39:25.679Z,2.10
2022-09-29T14:40:03.516Z,3.50
2022-09-29T14:41:01.324Z,2.70
2022-09-29T14:42:01.617Z,3.30
2022-09-29T14:43:01.267Z,2.00
2022-09-29T14:44:01.274Z,1.70
2022-09-29T14:45:01.247Z,2.90
2022-09-29T14:46:01.288Z,1.90
2022-09-29T14:47:01.305Z,2.50
2022-09-29T14:48:01.400Z,2.90
2022-09-29T14:49:01.260Z,1.80
2022-09-29T14:50:01.168Z,4.50
2022-09-29T14:51:01.199Z,3.50
2022-09-29T14:52:01.233Z,1.90
2022-09-29T14:53:01.164Z,2.20
2022-09-29T14:54:01.120Z,1.60
2022-09-29T14:55:01.146Z,3.20
2022-09-29T14:56:01.208Z,4.20
2022-09-29T14:57:01.169Z,2.80
2022-09-29T14:58:01.129Z,2.70
2022-09-29T14:59:01.138Z,2.30
2022-09-29T15:00:01.175Z,2.40
2022-09-29T15:01:01.113Z,3.40
2022-09-29T15:02:01.088Z,2.40
2022-09-29T15:03:23.482Z,1.10
2022-09-29T15:04:03.093Z,1.40
2022-09-29T15:05:01.077Z,3.70
2022-09-29T15:06:01.496Z,1.30
2022-09-29T15:07:01.010Z,1.80
2022-09-29T15:08:00.994Z,7.00
2022-09-29T15:09:00.981Z,2.20
2022-09-29T15:10:00.972Z,2.90
2022-09-29T15:11:01.983Z,1.10
2022-09-29T15:12:01.029Z,1.60
2022-09-29T15:13:01.058Z,1.20
2022-09-29T15:14:00.972Z,2.00
2022-09-29T15:15:00.929Z,3.00
2022-09-29T15:16:00.973Z,1.10
2022-09-29T15:17:01.039Z,1.10
2022-09-29T15:18:02.146Z,1.90
2022-09-29T15:19:01.017Z,1.60
2022-09-29T15:20:00.922Z,3.10
2022-09-29T15:21:00.925Z,1.80
2022-09-29T15:22:01.886Z,2.00
2022-09-29T15:23:00.937Z,2.30
2022-09-29T15:24:00.800Z,2.20
2022-09-29T15:25:00.814Z,1.40
2022-09-29T15:26:01.249Z,1.70
2022-09-29T15:27:00.770Z,2.50
2022-09-29T15:28:00.809Z,2.30
2022-09-29T15:29:00.865Z,1.70
2022-09-29T15:30:00.766Z,3.80
2022-09-29T15:31:02.907Z,3.10
2022-09-29T15:32:00.732Z,3.00
2022-09-29T15:33:00.767Z,3.90
2022-09-29T15:34:00.726Z,1.70
2022-09-29T15:35:00.778Z,2.80
2022-09-29T15:36:00.768Z,1.90
2022-09-29T15:37:00.747Z,1.60
2022-09-29T15:38:00.782Z,3.20
2022-09-29T15:39:00.730Z,3.90
2022-09-29T15:40:00.804Z,6.00
2022-09-29T15:41:00.614Z,2.70
2022-09-29T15:42:00.644Z,2.90
2022-09-29T15:43:01.419Z,3.40
2022-09-29T15:44:00.626Z,2.30
2022-09-29T15:45:00.614Z,2.10
2022-09-29T15:46:00.635Z,2.90
2022-09-29T15:47:00.579Z,2.10
2022-09-29T15:48:00.566Z,1.90
2022-09-29T15:49:00.608Z,3.20
2022-09-29T15:50:00.640Z,1.70
2022-09-29T15:51:00.518Z,2.60
2022-09-29T15:52:00.550Z,1.70
2022-09-29T15:53:00.643Z,2.00
2022-09-29T15:54:00.539Z,3.10
2022-09-29T15:55:00.550Z,1.30
2022-09-29T15:56:00.468Z,2.40
2022-09-29T15:57:00.478Z,1.90
2022-09-29T15:58:00.540Z,1.80
2022-09-29T15:59:01.314Z,1.40
2022-09-29T16:00:00.520Z,1.50
2022-09-29T16:01:00.991Z,2.40
2022-09-29T16:02:01.652Z,4.90
2022-09-29T16:03:01.453Z,2.60
2022-09-29T16:04:00.399Z,2.80
2022-09-29T16:05:00.366Z,1.50
2022-09-29T16:06:00.419Z,2.70
2022-09-29T16:07:00.363Z,2.30
2022-09-29T16:08:00.327Z,3.70
2022-09-29T16:09:00.446Z,1.40
2022-09-29T16:10:00.336Z,1.50
2022-09-29T16:11:00.423Z,3.00
2022-09-29T16:12:00.272Z,4.00
2022-09-29T16:13:00.248Z,2.30
2022-09-29T16:14:00.344Z,1.30
2022-09-29T16:15:00.235Z,3.10
2022-09-29T16:16:01.261Z,3.10
2022-09-29T16:17:00.270Z,2.20
2022-09-29T16:18:00.235Z,2.80
2022-09-29T16:19:00.226Z,4.90
2022-09-29T16:20:00.200Z,2.10
2022-09-29T16:21:00.350Z,1.50
2022-09-29T16:22:00.185Z,2.80
2022-09-29T16:23:00.198Z,2.00
2022-09-29T16:24:00.171Z,4.00
2022-09-29T16:25:00.236Z,1.40
2022-09-29T16:26:00.122Z,3.60
2022-09-29T16:27:00.104Z,4.40
2022-09-29T16:28:00.133Z,3.40
2022-09-29T16:29:00.116Z,3.10
2022-09-29T16:30:00.130Z,2.40
2022-09-29T16:31:00.199Z,3.90
2022-09-29T16:32:00.121Z,7.20
2022-09-29T16:33:00.049Z,5.00
2022-09-29T16:34:00.119Z,2.30
2022-09-29T16:35:00.045Z,2.70
2022-09-29T16:36:00.140Z,3.60
2022-09-29T16:37:00.024Z,2.80
2022-09-29T16:38:00.045Z,3.40
2022-09-29T16:39:00.014Z,1.70
2022-09-29T16:40:00.064Z,2.80
2022-09-29T16:41:00.097Z,4.20
2022-09-29T16:42:00.323Z,2.10
2022-09-29T16:43:00.111Z,4.40
2022-09-29T16:44:00.441Z,2.40
2022-09-29T16:45:00.001Z,4.60
2022-09-29T16:46:00.007Z,3.70
2022-09-29T16:46:59.962Z,4.00
2022-09-29T16:47:59.873Z,3.10
2022-09-29T16:48:59.914Z,2.20
2022-09-29T16:49:59.899Z,3.70
2022-09-29T16:50:59.893Z,2.40
2022-09-29T16:51:59.882Z,3.20
2022-09-29T16:52:59.843Z,6.80
2022-09-29T16:53:59.822Z,3.50
2022-09-29T16:54:59.885Z,5.40
2022-09-29T16:55:59.826Z,5.30
2022-09-29T16:56:59.767Z,4.50
2022-09-29T16:57:59.786Z,6.20
2022-09-29T16:58:59.758Z,5.10
2022-09-29T16:59:59.724Z,7.70
2022-09-29T17:00:59.739Z,7.30
2022-09-29T17:02:05.296Z,9.40
2022-09-29T17:03:02.356Z,5.80
2022-09-29T17:03:59.706Z,6.40
2022-09-29T17:04:59.722Z,8.00
2022-09-29T17:05:59.687Z,6.30
2022-09-29T17:06:59.652Z,4.60
2022-09-29T17:07:59.723Z,4.40
2022-09-29T17:08:59.666Z,6.30
2022-09-29T17:09:59.662Z,3.70
2022-09-29T17:10:59.640Z,3.30
2022-09-29T17:11:59.620Z,4.50
2022-09-29T17:12:59.659Z,7.70
2022-09-29T17:13:59.627Z,6.20
2022-09-29T17:14:59.576Z,4.20
2022-09-29T17:15:59.667Z,3.40
2022-09-29T17:16:59.586Z,6.60
2022-09-29T17:17:59.550Z,6.20
2022-09-29T17:18:59.611Z,3.30
2022-09-29T17:19:59.491Z,4.70
2022-09-29T17:20:59.485Z,6.70
2022-09-29T17:21:59.519Z,5.90
2022-09-29T17:22:59.499Z,2.50
2022-09-29T17:23:59.466Z,8.30
2022-09-29T17:25:00.036Z,5.00
2022-09-29T17:25:59.500Z,6.00
2022-09-29T17:27:00.911Z,8.00
2022-09-29T17:27:59.475Z,8.80
2022-09-29T17:28:59.473Z,6.00
2022-09-29T17:29:59.493Z,5.10
2022-09-29T17:30:59.479Z,7.70
2022-09-29T17:31:59.811Z,9.60
2022-09-29T17:32:59.537Z,8.30
2022-09-29T17:33:59.408Z,8.80
2022-09-29T17:34:59.401Z,7.30
2022-09-29T17:35:59.340Z,5.90
2022-09-29T17:36:59.336Z,9.80
2022-09-29T17:37:59.353Z,6.30
2022-09-29T17:38:59.324Z,6.60
2022-09-29T17:39:59.280Z,4.30
2022-09-29T17:40:59.268Z,8.40
2022-09-29T17:41:59.288Z,6.60
2022-09-29T17:42:59.241Z,8.00
2022-09-29T17:43:59.261Z,9.10
2022-09-29T17:44:59.252Z,12.70
2022-09-29T17:45:59.269Z,11.60
2022-09-29T17:47:11.115Z,18.80
2022-09-29T17:48:01.184Z,15.40
2022-09-29T17:48:59.213Z,17.80
2022-09-29T17:49:59.190Z,22.90
2022-09-29T17:50:59.594Z,13.10
2022-09-29T17:51:59.165Z,13.10
2022-09-29T17:52:59.143Z,15.00
2022-09-29T17:53:59.981Z,10.80
2022-09-29T17:54:59.140Z,13.50
2022-09-29T17:55:59.093Z,12.60
2022-09-29T17:57:02.416Z,14.80
2022-09-29T17:58:00.127Z,11.60
2022-09-29T17:58:59.089Z,15.30
2022-09-29T17:59:59.086Z,19.80
2022-09-29T18:00:59.030Z,15.70
2022-09-29T18:02:00.170Z,18.50
2022-09-29T18:02:59.117Z,14.40
2022-09-29T18:03:59.059Z,9.90
2022-09-29T18:04:59.043Z,16.90
2022-09-29T18:05:59.001Z,17.30
2022-09-29T18:06:59.030Z,9.10
2022-09-29T18:07:59.005Z,10.10
2022-09-29T18:08:59.006Z,9.90
2022-09-29T18:09:59.005Z,14.00
2022-09-29T18:10:58.965Z,16.60
2022-09-29T18:11:58.945Z,15.80
2022-09-29T18:12:58.929Z,10.30
2022-09-29T18:13:58.946Z,9.30
2022-09-29T18:14:58.937Z,12.70
2022-09-29T18:15:58.947Z,10.40
2022-09-29T18:16:58.943Z,10.30
2022-09-29T18:17:58.874Z,8.40
2022-09-29T18:18:59.200Z,12.80
2022-09-29T18:19:59.866Z,8.90
2022-09-29T18:20:58.871Z,10.80
2022-09-29T18:21:58.818Z,14.00
2022-09-29T18:22:58.830Z,13.20
2022-09-29T18:23:58.832Z,11.60
2022-09-29T18:24:58.811Z,11.70
2022-09-29T18:25:58.815Z,16.10
2022-09-29T18:26:58.808Z,10.70
2022-09-29T18:27:58.791Z,11.60
2022-09-29T18:28:58.751Z,9.90
2022-09-29T18:29:58.875Z,9.30
2022-09-29T18:30:58.768Z,15.30
2022-09-29T18:31:59.384Z,9.70
2022-09-29T18:32:58.724Z,9.70
2022-09-29T18:33:58.998Z,10.90
2022-09-29T18:34:58.776Z,10.40
2022-09-29T18:35:58.677Z,10.00
2022-09-29T18:36:58.700Z,14.60
2022-09-29T18:37:58.659Z,11.70
2022-09-29T18:38:58.691Z,21.00
2022-09-29T18:39:58.674Z,16.80
2022-09-29T18:40:58.630Z,12.60
2022-09-29T18:41:58.607Z,13.30
2022-09-29T18:42:58.612Z,12.30
2022-09-29T18:43:59.591Z,15.50
2022-09-29T18:44:58.572Z,13.10
2022-09-29T18:45:58.620Z,14.90
2022-09-29T18:46:58.686Z,14.20
2022-09-29T18:47:58.544Z,15.40
2022-09-29T18:48:58.520Z,18.70
2022-09-29T18:49:58.545Z,17.10
2022-09-29T18:50:59.519Z,16.20
2022-09-29T18:51:58.569Z,15.30
2022-09-29T18:52:58.496Z,12.60
2022-09-29T18:53:58.527Z,11.80
2022-09-29T18:54:58.476Z,12.60
2022-09-29T18:55:58.635Z,15.00
2022-09-29T18:56:58.437Z,15.90
2022-09-29T18:57:58.592Z,12.30
2022-09-29T18:58:58.413Z,12.10
2022-09-29T18:59:58.444Z,13.90
2022-09-29T19:00:58.437Z,14.80
2022-09-29T19:01:58.777Z,12.60
2022-09-29T19:02:58.536Z,14.70
2022-09-29T19:03:58.367Z,14.40
2022-09-29T19:04:58.384Z,14.20
2022-09-29T19:05:58.882Z,15.20
2022-09-29T19:06:58.336Z,17.00
2022-09-29T19:09:32.050Z,13.40
2022-09-29T19:09:58.357Z,14.30
2022-09-29T19:10:58.518Z,14.20
2022-09-29T19:11:58.334Z,17.60
2022-09-29T19:12:58.329Z,19.00
2022-09-29T19:13:58.327Z,19.90
2022-09-29T19:14:58.329Z,15.80
2022-09-29T19:15:58.335Z,14.70
2022-09-29T19:16:58.306Z,17.10
2022-09-29T19:17:58.288Z,16.70
2022-09-29T19:18:58.281Z,16.40
2022-09-29T19:19:58.293Z,19.30
2022-09-29T19:20:58.211Z,17.50
2022-09-29T19:21:58.202Z,15.00
2022-09-29T19:22:58.222Z,11.90
2022-09-29T19:23:58.285Z,12.60
2022-09-29T19:24:58.153Z,10.40
2022-09-29T19:25:58.198Z,10.50
2022-09-29T19:26:58.132Z,14.40
2022-09-29T19:27:58.210Z,11.20
2022-09-29T19:28:59.046Z,11.80
2022-09-29T19:30:02.313Z,9.60
2022-09-29T19:31:00.257Z,11.60
2022-09-29T19:31:58.101Z,16.20
2022-09-29T19:32:58.078Z,26.70
2022-09-29T19:33:58.110Z,35.30
2022-09-29T19:34:58.073Z,29.30
2022-09-29T19:35:58.081Z,16.00
2022-09-29T19:36:58.025Z,13.60
2022-09-29T19:37:58.037Z,11.90
2022-09-29T19:38:58.007Z,11.40
2022-09-29T19:39:58.850Z,14.60
2022-09-29T19:40:57.994Z,11.80
2022-09-29T19:41:58.011Z,10.20
2022-09-29T19:42:58.035Z,11.70
2022-09-29T19:43:57.966Z,12.30
2022-09-29T19:44:57.958Z,14.00
2022-09-29T19:45:58.028Z,15.40
2022-09-29T19:46:57.949Z,18.00
2022-09-29T19:47:57.926Z,15.90
2022-09-29T19:48:57.923Z,17.30
2022-09-29T19:49:58.550Z,16.50
2022-09-29T19:50:57.890Z,17.30
2022-09-29T19:51:57.924Z,12.50
2022-09-29T19:52:57.902Z,14.60
2022-09-29T19:53:57.863Z,14.80
2022-09-29T19:54:57.891Z,13.30
2022-09-29T19:55:57.895Z,13.80
2022-09-29T19:56:57.867Z,13.10
2022-09-29T19:57:57.858Z,15.70
2022-09-29T19:58:57.827Z,12.40
2022-09-29T19:59:57.835Z,12.70
2022-09-29T20:00:57.767Z,14.20
2022-09-29T20:01:57.870Z,13.10
2022-09-29T20:02:57.809Z,12.30
2022-09-29T20:03:57.748Z,12.90
2022-09-29T20:04:57.876Z,12.80
2022-09-29T20:05:57.719Z,15.30
2022-09-29T20:06:57.767Z,11.20
2022-09-29T20:07:57.743Z,12.70
2022-09-29T20:08:57.719Z,14.00
2022-09-29T20:09:57.702Z,16.10
2022-09-29T20:10:57.667Z,10.60
2022-09-29T20:11:57.891Z,15.40
2022-09-29T20:12:57.691Z,14.50
2022-09-29T20:13:57.647Z,9.20
2022-09-29T20:14:58.421Z,10.90
2022-09-29T20:15:57.665Z,9.80
2022-09-29T20:16:57.642Z,10.40
2022-09-29T20:17:57.635Z,11.10
2022-09-29T20:18:57.608Z,12.80
2022-09-29T20:19:57.571Z,11.00
2022-09-29T20:20:57.565Z,12.70
2022-09-29T20:21:57.589Z,13.70
2022-09-29T20:22:57.537Z,10.30
2022-09-29T20:23:57.568Z,11.80
2022-09-29T20:24:57.523Z,14.30
2022-09-29T20:25:57.509Z,10.40
2022-09-29T20:26:57.598Z,8.30
2022-09-29T20:27:57.488Z,13.20
2022-09-29T20:28:57.479Z,10.50
2022-09-29T20:29:57.511Z,10.00
2022-09-29T20:30:57.501Z,11.00
2022-09-29T20:31:57.467Z,11.10
2022-09-29T20:32:57.464Z,12.70
2022-09-29T20:33:57.428Z,10.90
2022-09-29T20:34:57.420Z,14.00
2022-09-29T20:35:57.550Z,17.30
2022-09-29T20:36:57.376Z,20.30
2022-09-29T20:37:57.391Z,13.10
2022-09-29T20:38:57.377Z,14.30
2022-09-29T20:39:57.380Z,17.60
2022-09-29T20:40:57.361Z,15.20
2022-09-29T20:41:57.342Z,14.60
2022-09-29T20:42:57.365Z,16.00
2022-09-29T20:43:57.333Z,18.60
2022-09-29T20:44:57.334Z,12.90
2022-09-29T20:45:57.330Z,11.30
2022-09-29T20:46:58.175Z,13.00
2022-09-29T20:47:57.280Z,13.60
2022-09-29T20:48:57.280Z,15.50
2022-09-29T20:49:57.263Z,14.80
2022-09-29T20:50:57.265Z,18.00
2022-09-29T20:51:57.274Z,15.30
2022-09-29T20:52:57.233Z,14.60
2022-09-29T20:53:57.221Z,12.90
2022-09-29T20:54:57.183Z,10.10
2022-09-29T20:55:57.169Z,16.20
2022-09-29T20:56:57.182Z,12.60
2022-09-29T20:57:57.162Z,11.00
2022-09-29T20:58:57.149Z,11.90
2022-09-29T20:59:57.165Z,18.20
2022-09-29T21:00:57.142Z,15.40
2022-09-29T21:01:57.245Z,18.90
2022-09-29T21:02:58.183Z,24.00
2022-09-29T21:03:57.113Z,17.70
2022-09-29T21:04:57.102Z,22.20
2022-09-29T21:05:57.090Z,16.60
2022-09-29T21:06:57.065Z,13.70
2022-09-29T21:07:57.065Z,15.70
2022-09-29T21:08:57.048Z,19.20
2022-09-29T21:09:57.046Z,11.50
2022-09-29T21:10:57.010Z,14.10
2022-09-29T21:11:57.028Z,20.90
2022-09-29T21:12:57.054Z,13.90
2022-09-29T21:13:56.996Z,16.60
2022-09-29T21:14:56.978Z,19.60
2022-09-29T21:15:57.020Z,14.30
2022-09-29T21:16:56.954Z,15.90
2022-09-29T21:17:57.542Z,13.60
2022-09-29T21:18:56.963Z,13.30
2022-09-29T21:19:56.931Z,13.80
2022-09-29T21:20:56.995Z,14.00
2022-09-29T21:21:56.891Z,13.30
2022-09-29T21:22:56.903Z,14.10
2022-09-29T21:23:56.942Z,12.30
2022-09-29T21:24:56.902Z,14.50
2022-09-29T21:25:56.911Z,14.00
2022-09-29T21:26:56.868Z,12.90
2022-09-29T21:27:56.823Z,13.60
2022-09-29T21:28:56.846Z,15.00
2022-09-29T21:29:56.857Z,14.60
2022-09-29T21:30:56.822Z,13.30
2022-09-29T21:31:56.822Z,14.20
2022-09-29T21:32:56.759Z,16.20
2022-09-29T21:33:56.811Z,12.60
2022-09-29T21:34:56.792Z,11.80
2022-09-29T21:35:56.739Z,12.00
2022-09-29T21:36:56.755Z,13.20
2022-09-29T21:37:56.705Z,13.40
2022-09-29T21:38:56.760Z,16.50
2022-09-29T21:39:56.748Z,12.60
2022-09-29T21:40:57.680Z,10.60
2022-09-29T21:41:56.691Z,11.50
2022-09-29T21:42:56.752Z,11.60
2022-09-29T21:43:56.665Z,13.10
2022-09-29T21:44:58.154Z,11.30
2022-09-29T21:45:57.607Z,11.80
2022-09-29T21:46:56.680Z,11.20
2022-09-29T21:47:56.616Z,14.40
2022-09-29T21:48:56.589Z,12.70
2022-09-29T21:49:56.641Z,16.60
2022-09-29T21:50:56.576Z,16.10
2022-09-29T21:52:01.218Z,13.10
2022-09-29T21:52:58.576Z,14.30
2022-09-29T21:53:56.516Z,16.30
2022-09-29T21:54:56.529Z,11.70
2022-09-29T21:55:56.596Z,12.30
2022-09-29T21:56:56.521Z,16.50
2022-09-29T21:57:56.529Z,15.10
2022-09-29T21:58:56.502Z,16.60
2022-09-29T21:59:56.592Z,19.30
2022-09-29T22:00:56.466Z,16.50
2022-09-29T22:01:56.541Z,24.20
2022-09-29T22:02:56.546Z,25.00
2022-09-29T22:03:56.437Z,26.60
2022-09-29T22:04:56.477Z,24.80
2022-09-29T22:05:56.445Z,23.90
2022-09-29T22:06:56.413Z,21.10
2022-09-29T22:07:56.414Z,19.70
2022-09-29T22:08:56.514Z,23.60
2022-09-29T22:09:56.423Z,17.80
2022-09-29T22:10:56.388Z,21.40
2022-09-29T22:11:56.333Z,21.10
2022-09-29T22:12:56.360Z,18.00
2022-09-29T22:13:56.378Z,20.30
2022-09-29T22:14:56.341Z,21.80
2022-09-29T22:15:56.363Z,23.00
2022-09-29T22:16:56.310Z,27.20
2022-09-29T22:17:56.290Z,24.10
2022-09-29T22:19:21.457Z,24.30
2022-09-29T22:19:58.277Z,23.50
2022-09-29T22:20:56.278Z,24.10
2022-09-29T22:21:56.236Z,25.40
2022-09-29T22:22:56.233Z,24.70
2022-09-29T22:23:56.201Z,22.30
2022-09-29T22:24:56.229Z,20.90
2022-09-29T22:25:56.518Z,17.30
2022-09-29T22:26:56.196Z,17.80
2022-09-29T22:27:57.222Z,20.20
2022-09-29T22:28:56.209Z,17.60
2022-09-29T22:29:56.218Z,16.50
2022-09-29T22:30:56.202Z,18.40
2022-09-29T22:31:56.221Z,21.00
2022-09-29T22:32:56.142Z,16.30
2022-09-29T22:33:56.162Z,20.30
2022-09-29T22:34:56.119Z,21.20
2022-09-29T22:35:56.086Z,15.60
2022-09-29T22:36:56.062Z,15.30
2022-09-29T22:37:56.079Z,19.20
2022-09-29T22:38:56.063Z,15.80
2022-09-29T22:39:56.086Z,16.00
2022-09-29T22:40:56.075Z,16.20
2022-09-29T22:41:56.027Z,17.00
2022-09-29T22:42:56.005Z,13.70
2022-09-29T22:43:56.036Z,18.60
2022-09-29T22:44:56.014Z,18.80
2022-09-29T22:45:55.998Z,16.90
2022-09-29T22:46:56.108Z,16.90
2022-09-29T22:47:55.946Z,21.90
2022-09-29T22:48:55.976Z,20.60
2022-09-29T22:49:55.957Z,18.90
2022-09-29T22:50:55.975Z,22.10
2022-09-29T22:51:55.953Z,18.00
2022-09-29T22:52:55.883Z,20.40
2022-09-29T22:53:55.889Z,15.50
2022-09-29T22:54:55.863Z,19.10
2022-09-29T22:55:55.847Z,16.40